Time;durP1;ratioP1;P1;durP2;ratioP2;P2;SDS_P1;SDS_P2;PMS_P1;PMS_P2;Temp;Humidity;BMP_temperature;BMP_pressure;BME280_temperature;BME280_humidity;BME280_pressure;Samples;Min_cycle;Max_cycle;Signal;HPM_P1;HPM_P2
2021/10/04 00:02:23;;;;;;;2.47;0.70;;;11.30;99.90;;;;;;5061689;28;20054;-76
2021/10/04 00:04:50;;;;;;;2.55;0.85;;;11.30;99.90;;;;;;5097631;28;20035;-77
2021/10/04 00:07:17;;;;;;;4.43;0.80;;;11.30;99.90;;;;;;5077554;28;21012;-76
2021/10/04 00:09:45;;;;;;;5.65;3.30;;;11.30;99.90;;;;;;5044569;28;20644;-76
2021/10/04 00:12:11;;;;;;;12.38;6.97;;;11.30;99.90;;;;;;5083635;28;20032;-76
2021/10/04 00:14:38;;;;;;;10.27;5.25;;;11.30;99.90;;;;;;5099693;28;20051;-76
2021/10/04 00:17:04;;;;;;;12.80;6.38;;;11.20;99.90;;;;;;5100411;28;20381;-76
2021/10/04 00:19:31;;;;;;;9.95;4.53;;;11.20;99.90;;;;;;5105631;28;20043;-76
2021/10/04 00:21:57;;;;;;;11.68;4.40;;;11.20;99.90;;;;;;5075659;28;20503;-77
2021/10/04 00:24:23;;;;;;;7.28;4.05;;;11.20;99.90;;;;;;5076985;28;20027;-76
2021/10/04 00:26:50;;;;;;;5.85;3.03;;;11.20;99.90;;;;;;5105616;28;20042;-78
2021/10/04 00:29:19;;;;;;;3.65;2.15;;;11.20;99.90;;;;;;5074128;28;20050;-76
2021/10/04 00:31:48;;;;;;;4.00;1.42;;;11.20;99.90;;;;;;5108266;27;20035;-76
2021/10/04 00:34:15;;;;;;;4.28;0.93;;;11.20;99.90;;;;;;5082969;27;20051;-75
2021/10/04 00:36:42;;;;;;;3.75;1.00;;;11.20;99.90;;;;;;5086638;27;20051;-76
2021/10/04 00:39:09;;;;;;;2.67;0.70;;;11.20;99.90;;;;;;5111312;27;20027;-76
2021/10/04 00:41:35;;;;;;;3.53;0.70;;;11.20;99.90;;;;;;5087013;27;20043;-76
2021/10/04 00:44:02;;;;;;;4.90;0.70;;;11.20;99.90;;;;;;5087913;27;20043;-76
2021/10/04 00:46:30;;;;;;;3.85;0.80;;;11.20;99.90;;;;;;5118745;27;20472;-76
2021/10/04 00:48:56;;;;;;;5.40;0.90;;;11.20;99.90;;;;;;5086221;27;20039;-76
2021/10/04 00:51:23;;;;;;;2.55;0.88;;;11.30;99.90;;;;;;5072659;27;20059;-76
2021/10/04 00:53:52;;;;;;;3.78;1.20;;;11.30;99.90;;;;;;5084955;27;20066;-76
2021/10/04 00:56:19;;;;;;;3.90;1.00;;;11.30;99.90;;;;;;5110465;27;20047;-75
2021/10/04 00:58:47;;;;;;;4.32;0.70;;;11.30;99.90;;;;;;5087751;27;20483;-76
2021/10/04 01:01:13;;;;;;;4.55;0.80;;;11.30;99.90;;;;;;5086960;27;20047;-76
2021/10/04 01:03:40;;;;;;;4.22;0.80;;;11.30;99.90;;;;;;5110835;27;21613;-76
2021/10/04 01:06:07;;;;;;;3.53;0.80;;;11.30;99.90;;;;;;5115531;27;20384;-76
2021/10/04 01:08:33;;;;;;;5.55;0.85;;;11.20;99.90;;;;;;5069003;27;21854;-76
2021/10/04 01:11:00;;;;;;;2.58;0.70;;;11.30;99.90;;;;;;5088410;27;20039;-76
2021/10/04 01:13:26;;;;;;;1.73;0.50;;;11.20;99.90;;;;;;5067831;28;20054;-75
2021/10/04 01:15:52;;;;;;;3.40;0.90;;;11.30;99.90;;;;;;5108519;27;20503;-76
2021/10/04 01:18:19;;;;;;;4.22;0.70;;;11.30;99.90;;;;;;5113257;27;20039;-76
2021/10/04 01:20:45;;;;;;;3.17;0.80;;;11.30;99.90;;;;;;5084896;28;20040;-76
2021/10/04 01:23:12;;;;;;;2.60;0.63;;;11.30;99.90;;;;;;5085285;27;20582;-76
2021/10/04 01:25:38;;;;;;;3.85;0.75;;;11.30;99.90;;;;;;5067677;27;20048;-75
2021/10/04 01:28:05;;;;;;;3.78;0.70;;;11.30;99.90;;;;;;5109500;27;20035;-75
2021/10/04 01:30:33;;;;;;;3.72;0.68;;;11.30;99.90;;;;;;5083501;27;20044;-76
2021/10/04 01:33:00;;;;;;;3.72;0.57;;;11.30;99.90;;;;;;5111993;27;20494;-75
2021/10/04 01:35:26;;;;;;;5.50;0.70;;;11.30;99.90;;;;;;5110758;27;20494;-76
2021/10/04 01:37:53;;;;;;;3.03;0.50;;;11.30;99.90;;;;;;5081934;27;20073;-76
2021/10/04 01:40:20;;;;;;;4.43;0.57;;;11.30;99.90;;;;;;5107331;27;20040;-76
2021/10/04 01:42:47;;;;;;;2.78;0.82;;;11.30;99.90;;;;;;5109815;27;21231;-75
2021/10/04 01:45:17;;;;;;;3.38;0.60;;;11.30;99.90;;;;;;5080566;27;20526;-75
2021/10/04 01:47:43;;;;;;;3.05;0.50;;;11.30;99.90;;;;;;5080405;27;20039;-76
2021/10/04 01:50:11;;;;;;;2.72;0.80;;;11.30;99.90;;;;;;5086682;27;20517;-76
2021/10/04 01:52:39;;;;;;;1.73;0.50;;;11.20;99.90;;;;;;5087337;27;20043;-76
2021/10/04 01:55:06;;;;;;;1.90;0.55;;;11.30;99.90;;;;;;5080347;27;20032;-75
2021/10/04 01:57:32;;;;;;;4.93;0.93;;;11.20;99.90;;;;;;5103208;27;20039;-75
2021/10/04 02:00:02;;;;;;;3.33;0.68;;;11.30;99.90;;;;;;5087865;28;20039;-76
2021/10/04 02:02:39;;;;;;;4.55;0.70;;;11.20;99.90;;;;;;5101457;27;20047;-76
2021/10/04 02:05:07;;;;;;;3.92;0.80;;;11.20;99.90;;;;;;5077967;27;20028;-76
2021/10/04 02:07:36;;;;;;;2.97;0.50;;;11.20;99.90;;;;;;5106931;27;20043;-76
2021/10/04 02:10:08;;;;;;;1.80;0.50;;;11.20;99.90;;;;;;5106502;27;20057;-75
2021/10/04 02:12:35;;;;;;;2.97;0.50;;;11.20;99.90;;;;;;5066165;27;20043;-76
2021/10/04 02:15:03;;;;;;;3.70;0.55;;;11.20;99.90;;;;;;5106301;27;20038;-76
2021/10/04 02:17:31;;;;;;;3.05;0.50;;;11.20;99.90;;;;;;5105944;27;20496;-76
2021/10/04 02:19:57;;;;;;;2.20;0.40;;;11.20;99.90;;;;;;5086581;27;20487;-76
2021/10/04 02:22:24;;;;;;;3.60;0.50;;;11.20;99.90;;;;;;5108007;27;20027;-75
2021/10/04 02:24:51;;;;;;;2.33;0.65;;;11.20;99.90;;;;;;5085509;27;20032;-76
2021/10/04 02:27:17;;;;;;;3.30;0.30;;;11.20;99.90;;;;;;5085978;27;20043;-76
2021/10/04 02:29:44;;;;;;;1.63;0.40;;;11.20;99.90;;;;;;5067760;27;20047;-76
2021/10/04 02:32:10;;;;;;;3.78;0.47;;;11.20;99.90;;;;;;5109054;27;20031;-76
2021/10/04 02:34:37;;;;;;;2.63;0.40;;;11.20;99.90;;;;;;5083790;27;20035;-76
2021/10/04 02:37:03;;;;;;;2.63;0.52;;;11.10;99.90;;;;;;5085734;28;20040;-76
2021/10/04 02:39:30;;;;;;;3.38;0.55;;;11.20;99.90;;;;;;5067634;27;20051;-76
2021/10/04 02:41:56;;;;;;;3.80;0.50;;;11.10;99.90;;;;;;5071157;27;20399;-76
2021/10/04 02:44:22;;;;;;;2.80;0.40;;;11.10;99.90;;;;;;5084041;27;20035;-76
2021/10/04 02:46:49;;;;;;;4.13;0.50;;;11.10;99.90;;;;;;5087582;27;20550;-76
2021/10/04 02:49:15;;;;;;;4.90;0.77;;;11.10;99.90;;;;;;5109786;27;20059;-76
2021/10/04 02:51:42;;;;;;;4.43;0.40;;;11.10;99.90;;;;;;5067284;27;20472;-75
2021/10/04 02:54:08;;;;;;;2.58;0.60;;;11.00;99.90;;;;;;5082289;28;20074;-75
2021/10/04 02:56:35;;;;;;;5.47;0.32;;;11.10;99.90;;;;;;5085254;28;20054;-75
2021/10/04 02:59:01;;;;;;;2.90;0.50;;;11.00;99.90;;;;;;5084645;27;20526;-75
2021/10/04 03:01:27;;;;;;;3.53;0.60;;;11.00;99.90;;;;;;5083474;27;20740;-76
2021/10/04 03:03:54;;;;;;;2.22;0.50;;;11.00;99.90;;;;;;5105514;27;20507;-75
2021/10/04 03:06:20;;;;;;;2.22;0.77;;;11.00;99.90;;;;;;5068721;27;20043;-76
2021/10/04 03:08:46;;;;;;;1.92;0.40;;;11.00;99.90;;;;;;5083771;27;20054;-76
2021/10/04 03:11:13;;;;;;;1.75;0.40;;;11.00;99.90;;;;;;5085547;27;21313;-76
2021/10/04 03:13:39;;;;;;;2.47;0.45;;;11.00;99.90;;;;;;5109923;27;20039;-76
2021/10/04 03:16:06;;;;;;;4.22;0.57;;;11.00;99.90;;;;;;5109176;27;20046;-75
2021/10/04 03:18:32;;;;;;;1.83;0.43;;;11.00;99.90;;;;;;5084673;28;20052;-76
2021/10/04 03:20:58;;;;;;;1.90;0.50;;;11.00;99.90;;;;;;5113336;27;20487;-75
2021/10/04 03:23:25;;;;;;;4.32;1.02;;;11.00;99.90;;;;;;5061319;28;20051;-75
2021/10/04 03:25:51;;;;;;;5.78;3.85;;;11.00;99.90;;;;;;5081154;28;20856;-76
2021/10/04 03:28:18;;;;;;;3.65;1.92;;;11.10;99.90;;;;;;5079407;28;20045;-75
2021/10/04 03:30:44;;;;;;;2.95;1.05;;;11.00;99.90;;;;;;5082653;28;20078;-76
2021/10/04 03:33:11;;;;;;;3.78;0.70;;;11.10;99.90;;;;;;5067437;28;20036;-76
2021/10/04 03:35:37;;;;;;;3.17;0.50;;;11.10;99.90;;;;;;5102000;28;20028;-76
2021/10/04 03:38:03;;;;;;;3.97;0.60;;;11.10;99.90;;;;;;5075884;28;20031;-76
2021/10/04 03:40:30;;;;;;;4.07;0.98;;;11.10;99.90;;;;;;5065469;28;20484;-76
2021/10/04 03:42:56;;;;;;;2.20;0.50;;;11.00;99.90;;;;;;5078692;28;20047;-76
2021/10/04 03:45:23;;;;;;;1.40;0.43;;;11.10;99.90;;;;;;5102353;28;20039;-76
2021/10/04 03:47:49;;;;;;;1.80;0.60;;;11.10;99.90;;;;;;5080056;28;20050;-76
2021/10/04 03:50:17;;;;;;;2.47;0.63;;;11.10;99.90;;;;;;5066916;28;20035;-76
2021/10/04 03:52:44;;;;;;;2.20;0.50;;;11.10;99.90;;;;;;5083254;27;20048;-76
2021/10/04 03:55:11;;;;;;;1.70;0.40;;;11.10;99.90;;;;;;5072891;28;20043;-76
2021/10/04 03:57:40;;;;;;;1.13;0.40;;;11.10;99.90;;;;;;5108410;28;20653;-76
2021/10/04 04:00:10;;;;;;;2.13;0.40;;;11.10;99.90;;;;;;5053921;28;20043;-76
2021/10/04 04:02:37;;;;;;;3.95;0.70;;;11.10;99.90;;;;;;5105163;27;20468;-76
2021/10/04 04:05:04;;;;;;;1.98;0.50;;;11.10;99.90;;;;;;5066653;27;20043;-76
2021/10/04 04:07:31;;;;;;;2.30;0.50;;;11.10;99.90;;;;;;5114116;27;20503;-75
2021/10/04 04:09:57;;;;;;;2.78;0.40;;;11.10;99.90;;;;;;5088282;27;20039;-76
2021/10/04 04:12:24;;;;;;;3.53;0.40;;;11.10;99.90;;;;;;5088272;27;20039;-75
2021/10/04 04:14:50;;;;;;;2.60;0.40;;;11.10;99.90;;;;;;5110849;27;20046;-76
2021/10/04 04:17:17;;;;;;;1.92;0.40;;;11.00;99.90;;;;;;5116574;27;20040;-75
2021/10/04 04:19:43;;;;;;;3.38;0.75;;;11.10;99.90;;;;;;5053650;27;20043;-76
2021/10/04 04:22:09;;;;;;;4.13;0.50;;;11.10;99.90;;;;;;5036396;27;20063;-75
2021/10/04 04:24:37;;;;;;;3.53;0.60;;;11.10;99.90;;;;;;5111280;27;20047;-76
2021/10/04 04:27:06;;;;;;;3.70;0.47;;;11.10;99.90;;;;;;5055051;27;20043;-76
2021/10/04 04:29:37;;;;;;;2.75;1.00;;;11.10;99.90;;;;;;5085790;27;20058;-75
2021/10/04 04:32:10;;;;;;;2.35;0.60;;;11.10;99.90;;;;;;5087380;27;20035;-76
2021/10/04 04:34:37;;;;;;;2.88;0.65;;;11.10;99.90;;;;;;5109745;27;20369;-75
2021/10/04 04:37:04;;;;;;;2.60;0.70;;;11.10;99.90;;;;;;5114807;27;20036;-76
2021/10/04 04:39:33;;;;;;;2.47;0.50;;;11.10;99.90;;;;;;5067342;27;20042;-75
2021/10/04 04:42:01;;;;;;;4.22;0.60;;;11.10;99.90;;;;;;5086121;27;20030;-75
2021/10/04 04:44:28;;;;;;;2.70;0.40;;;11.10;99.90;;;;;;5106539;27;20039;-75
2021/10/04 04:46:55;;;;;;;2.10;0.50;;;11.10;99.90;;;;;;5118068;27;20035;-75
2021/10/04 04:49:26;;;;;;;2.50;0.50;;;11.10;99.90;;;;;;5108997;27;20046;-76
2021/10/04 04:51:58;;;;;;;1.23;0.40;;;11.10;99.90;;;;;;5086978;27;20047;-75
2021/10/04 04:54:25;;;;;;;2.55;0.40;;;11.10;99.90;;;;;;5065195;27;20047;-75
2021/10/04 04:56:55;;;;;;;4.60;0.57;;;11.10;99.90;;;;;;5086488;27;20042;-76
2021/10/04 04:59:22;;;;;;;2.75;0.50;;;11.10;99.90;;;;;;5085790;27;20034;-75
2021/10/04 05:01:49;;;;;;;3.50;0.60;;;11.10;99.90;;;;;;5086691;27;20502;-75
2021/10/04 05:04:15;;;;;;;2.40;0.50;;;11.10;99.90;;;;;;5104422;27;20030;-76
2021/10/04 05:06:41;;;;;;;3.15;0.52;;;11.10;99.90;;;;;;5112936;27;20039;-75
2021/10/04 05:09:08;;;;;;;2.58;0.47;;;11.10;99.90;;;;;;5084365;28;20042;-76
2021/10/04 05:11:34;;;;;;;2.38;0.47;;;11.10;99.90;;;;;;5109996;27;20035;-75
2021/10/04 05:14:01;;;;;;;1.80;0.50;;;11.10;99.90;;;;;;5104091;27;20074;-75
2021/10/04 05:16:27;;;;;;;2.60;0.57;;;11.10;99.90;;;;;;5086751;27;20510;-76
2021/10/04 05:18:54;;;;;;;3.50;0.50;;;11.10;99.90;;;;;;5098883;27;20487;-75
2021/10/04 05:21:20;;;;;;;6.53;0.65;;;11.10;99.90;;;;;;5114783;27;20035;-75
2021/10/04 05:23:47;;;;;;;5.43;0.50;;;11.10;99.90;;;;;;5107162;27;20054;-76
2021/10/04 05:26:13;;;;;;;2.67;0.40;;;11.10;99.90;;;;;;5068419;27;20040;-75
2021/10/04 05:28:39;;;;;;;2.17;0.60;;;11.10;99.90;;;;;;5101444;27;20053;-75
2021/10/04 05:31:06;;;;;;;2.53;0.40;;;11.10;99.90;;;;;;5083878;27;20028;-75
2021/10/04 05:33:32;;;;;;;2.90;0.70;;;11.10;99.90;;;;;;5067194;27;20051;-76
2021/10/04 05:35:59;;;;;;;4.40;0.45;;;11.10;99.90;;;;;;5088902;27;20065;-76
2021/10/04 05:38:25;;;;;;;2.13;0.50;;;11.10;99.90;;;;;;5054059;28;20062;-75
2021/10/04 05:40:52;;;;;;;4.22;0.52;;;11.10;99.90;;;;;;5087934;27;20050;-76
2021/10/04 05:43:18;;;;;;;2.15;0.60;;;11.10;99.90;;;;;;5066205;27;20051;-76
2021/10/04 05:45:44;;;;;;;5.40;0.50;;;11.10;99.90;;;;;;5084977;27;20043;-76
2021/10/04 05:48:11;;;;;;;2.85;0.50;;;11.10;99.90;;;;;;5067256;27;20048;-75
2021/10/04 05:50:37;;;;;;;5.65;0.57;;;11.10;99.90;;;;;;5082054;27;20046;-76
2021/10/04 05:53:04;;;;;;;3.97;0.50;;;11.10;99.90;;;;;;5087298;27;20030;-76
2021/10/04 05:55:30;;;;;;;1.25;0.50;;;11.10;99.90;;;;;;5112014;27;20047;-75
2021/10/04 05:57:57;;;;;;;3.72;0.50;;;11.10;99.90;;;;;;5083552;27;20040;-75
2021/10/04 06:00:23;;;;;;;2.58;0.43;;;11.10;99.90;;;;;;5114097;27;20050;-76
2021/10/04 06:02:50;;;;;;;3.05;0.60;;;11.10;99.90;;;;;;5109659;27;20798;-73
2021/10/04 06:05:17;;;;;;;1.85;0.40;;;11.10;99.90;;;;;;5106214;27;20035;-73
2021/10/04 06:07:43;;;;;;;3.63;0.40;;;11.10;99.90;;;;;;5064378;27;20051;-74
2021/10/04 06:10:11;;;;;;;5.40;2.60;;;11.10;99.90;;;;;;5087176;27;20058;-74
2021/10/04 06:12:39;;;;;;;5.50;1.98;;;11.10;99.90;;;;;;5068032;27;20050;-74
2021/10/04 06:15:05;;;;;;;4.03;1.48;;;11.10;99.90;;;;;;5108562;27;20038;-75
2021/10/04 06:17:32;;;;;;;4.53;1.10;;;11.10;99.90;;;;;;5084208;27;20040;-76
2021/10/04 06:19:58;;;;;;;2.83;0.70;;;11.10;99.90;;;;;;5082969;27;20483;-75
2021/10/04 06:22:25;;;;;;;2.58;0.60;;;11.10;99.90;;;;;;5081179;27;20032;-74
2021/10/04 06:24:52;;;;;;;2.15;0.50;;;11.20;99.90;;;;;;5101413;27;20054;-75
2021/10/04 06:27:19;;;;;;;2.33;0.80;;;11.20;99.90;;;;;;5110534;27;20063;-75
2021/10/04 06:29:46;;;;;;;5.07;0.80;;;11.20;99.90;;;;;;5084011;27;20031;-75
2021/10/04 06:32:13;;;;;;;6.80;4.05;;;11.20;99.90;;;;;;5114118;27;20514;-75
2021/10/04 06:34:39;;;;;;;5.10;1.88;;;11.20;99.90;;;;;;5104576;27;20031;-75
2021/10/04 06:37:06;;;;;;;2.10;0.73;;;11.20;99.90;;;;;;5067076;27;20055;-76
2021/10/04 06:39:32;;;;;;;3.63;0.70;;;11.30;99.90;;;;;;5058681;27;20040;-75
2021/10/04 06:41:59;;;;;;;5.80;0.70;;;11.20;99.90;;;;;;5078659;27;20046;-74
2021/10/04 06:44:32;;;;;;;4.55;0.75;;;11.30;99.90;;;;;;5080639;28;20039;-74
2021/10/04 06:47:01;;;;;;;3.33;0.73;;;11.30;99.90;;;;;;5112557;27;20042;-75
2021/10/04 06:49:28;;;;;;;1.80;0.82;;;11.30;99.90;;;;;;5076213;28;20027;-75
2021/10/04 06:51:54;;;;;;;1.58;0.30;;;11.30;99.90;;;;;;5108700;27;20047;-76
2021/10/04 06:54:21;;;;;;;2.42;0.40;;;11.30;99.90;;;;;;5080999;27;20058;-75
2021/10/04 06:56:47;;;;;;;2.47;0.77;;;11.40;99.90;;;;;;5045985;27;20047;-76
2021/10/04 06:59:14;;;;;;;3.53;0.50;;;11.40;99.90;;;;;;5080032;28;20028;-76
2021/10/04 07:01:40;;;;;;;2.47;0.60;;;11.50;99.90;;;;;;5066763;27;20042;-76
2021/10/04 07:04:07;;;;;;;1.17;0.57;;;11.50;99.90;;;;;;5081020;28;20051;-74
2021/10/04 07:06:34;;;;;;;1.48;0.50;;;11.50;99.90;;;;;;5110619;27;20495;-76
2021/10/04 07:09:01;;;;;;;3.88;0.70;;;11.60;99.90;;;;;;5079522;28;20040;-76
2021/10/04 07:11:27;;;;;;;3.55;0.50;;;11.60;99.90;;;;;;5086334;28;20042;-76
2021/10/04 07:13:54;;;;;;;3.35;0.60;;;11.60;99.90;;;;;;5066866;28;20054;-74
2021/10/04 07:16:20;;;;;;;3.63;0.70;;;11.70;99.90;;;;;;5082324;28;20066;-75
2021/10/04 07:18:47;;;;;;;2.70;0.60;;;11.70;99.90;;;;;;5083180;27;20395;-76
2021/10/04 07:21:13;;;;;;;2.30;0.60;;;11.70;99.90;;;;;;5070162;28;20054;-76
2021/10/04 07:23:40;;;;;;;6.90;1.40;;;11.70;99.90;;;;;;5104394;27;20023;-76
2021/10/04 07:26:06;;;;;;;3.60;0.63;;;11.70;99.90;;;;;;5067682;28;20036;-74
2021/10/04 07:28:33;;;;;;;4.07;0.70;;;11.60;99.90;;;;;;5114981;28;20043;-74
2021/10/04 07:31:00;;;;;;;6.53;0.75;;;11.60;99.90;;;;;;5084230;28;20498;-76
2021/10/04 07:33:27;;;;;;;3.42;0.70;;;11.60;99.90;;;;;;5083700;27;20057;-76
2021/10/04 07:35:55;;;;;;;2.55;0.50;;;11.60;99.90;;;;;;5052354;28;20043;-76
2021/10/04 07:38:23;;;;;;;3.10;0.60;;;11.70;99.90;;;;;;5048602;28;20051;-76
2021/10/04 07:40:49;;;;;;;5.68;0.70;;;11.70;99.90;;;;;;5110447;28;20038;-75
2021/10/04 07:43:16;;;;;;;4.20;0.70;;;11.70;99.90;;;;;;5073442;27;20028;-74
2021/10/04 07:45:42;;;;;;;5.78;1.08;;;11.80;99.90;;;;;;5113266;27;20050;-74
2021/10/04 07:48:09;;;;;;;3.70;0.60;;;11.80;99.90;;;;;;5089196;27;20039;-74
2021/10/04 07:50:35;;;;;;;3.95;1.00;;;11.90;99.90;;;;;;5088438;27;20387;-76
2021/10/04 07:53:02;;;;;;;5.45;0.80;;;11.90;99.90;;;;;;5089907;27;20032;-76
2021/10/04 07:55:29;;;;;;;4.82;0.70;;;11.90;99.90;;;;;;5088613;27;20046;-76
2021/10/04 07:57:55;;;;;;;2.90;0.60;;;12.00;99.90;;;;;;5071783;27;20043;-76
2021/10/04 08:00:21;;;;;;;5.38;0.77;;;12.00;99.90;;;;;;5090821;27;20047;-76
2021/10/04 08:02:48;;;;;;;3.88;0.63;;;11.90;99.90;;;;;;5116663;27;20031;-74
2021/10/04 08:05:15;;;;;;;3.97;0.60;;;11.90;99.90;;;;;;5090193;27;20042;-75
2021/10/04 08:07:41;;;;;;;2.42;0.55;;;11.90;99.90;;;;;;5114268;27;20027;-76
2021/10/04 08:10:09;;;;;;;3.50;0.90;;;11.90;99.90;;;;;;5089300;27;20047;-76
2021/10/04 08:12:36;;;;;;;2.53;0.60;;;11.90;99.90;;;;;;5117476;27;20058;-76
2021/10/04 08:15:05;;;;;;;1.65;0.60;;;12.00;99.90;;;;;;5060932;27;20035;-75
2021/10/04 08:17:31;;;;;;;4.00;0.55;;;12.10;99.90;;;;;;5087162;27;20046;-75
2021/10/04 08:19:58;;;;;;;2.95;0.60;;;12.30;99.90;;;;;;5056413;27;20061;-76
2021/10/04 08:22:25;;;;;;;3.13;0.60;;;12.50;99.90;;;;;;5087541;27;20039;-75
2021/10/04 08:24:52;;;;;;;4.38;0.60;;;12.60;99.90;;;;;;5072152;27;20401;-75
2021/10/04 08:27:18;;;;;;;2.92;0.70;;;12.70;99.90;;;;;;5084695;27;20042;-75
2021/10/04 08:29:44;;;;;;;6.75;1.98;;;12.90;99.90;;;;;;5065758;27;20052;-76
2021/10/04 08:32:11;;;;;;;5.38;1.40;;;13.00;99.90;;;;;;5109813;27;20036;-76
2021/10/04 08:34:37;;;;;;;5.45;1.65;;;13.10;99.90;;;;;;5109523;27;20034;-76
2021/10/04 08:37:04;;;;;;;10.52;1.00;;;13.20;99.90;;;;;;5084181;27;20027;-76
2021/10/04 08:39:30;;;;;;;2.85;0.98;;;13.40;99.90;;;;;;5115092;27;20035;-75
2021/10/04 08:41:57;;;;;;;5.53;1.67;;;13.50;99.90;;;;;;5084495;27;20035;-74
2021/10/04 08:44:25;;;;;;;4.38;1.30;;;13.60;99.90;;;;;;5069348;28;20039;-75
2021/10/04 08:46:52;;;;;;;3.33;0.80;;;13.70;99.90;;;;;;5119164;27;20027;-75
2021/10/04 08:49:19;;;;;;;3.40;0.50;;;13.80;99.90;;;;;;5064672;27;20043;-75
2021/10/04 08:51:47;;;;;;;3.78;0.60;;;13.90;99.90;;;;;;5080048;27;20100;-75
2021/10/04 08:54:14;;;;;;;4.40;0.77;;;14.00;99.90;;;;;;5104989;27;20054;-75
2021/10/04 08:56:41;;;;;;;3.85;0.50;;;14.10;99.90;;;;;;5052033;27;20059;-75
2021/10/04 08:59:07;;;;;;;2.05;0.40;;;14.20;99.90;;;;;;5082617;28;20047;-75
2021/10/04 09:01:33;;;;;;;2.65;0.43;;;14.20;99.90;;;;;;5051474;28;20149;-77
2021/10/04 09:04:02;;;;;;;2.58;0.40;;;14.30;99.90;;;;;;5083143;28;20039;-75
2021/10/04 09:06:47;;;;;;;3.35;0.50;;;14.40;99.90;;;;;;5115898;27;20032;-75
2021/10/04 09:09:16;;;;;;;5.97;0.60;;;14.40;99.90;;;;;;5065041;27;20044;-75
2021/10/04 09:11:49;;;;;;;2.50;0.50;;;14.50;99.90;;;;;;5083180;27;20884;-75
2021/10/04 09:14:17;;;;;;;5.88;1.20;;;14.60;99.90;;;;;;5085707;27;20039;-76
2021/10/04 09:16:49;;;;;;;4.38;0.65;;;14.60;99.90;;;;;;5082444;27;20040;-76
2021/10/04 09:19:29;;;;;;;3.08;0.50;;;14.70;99.90;;;;;;5084686;27;20051;-76
2021/10/04 09:22:16;;;;;;;3.67;0.70;;;14.80;99.90;;;;;;5085078;27;20042;-76
2021/10/04 09:24:49;;;;;;;4.20;0.52;;;14.90;99.90;;;;;;5108319;27;20447;-75
2021/10/04 09:27:24;;;;;;;8.50;0.70;;;15.00;99.90;;;;;;5086505;27;20028;-76
2021/10/04 09:29:51;;;;;;;5.25;0.50;;;15.10;99.90;;;;;;5114141;27;20039;-76
2021/10/04 09:32:27;;;;;;;3.67;0.70;;;15.20;99.90;;;;;;5068896;27;20047;-77
2021/10/04 09:35:24;;;;;;;2.28;0.55;;;15.20;99.90;;;;;;5068743;27;20050;-76
2021/10/04 09:37:59;;;;;;;4.38;0.52;;;15.30;99.90;;;;;;5060352;27;20051;-76
2021/10/04 09:40:40;;;;;;;4.95;0.40;;;15.40;99.90;;;;;;5110840;27;20031;-75
2021/10/04 09:43:27;;;;;;;4.20;0.50;;;15.50;99.90;;;;;;5104149;27;20027;-75
2021/10/04 09:46:08;;;;;;;3.85;0.88;;;15.70;99.90;;;;;;5114265;27;20031;-75
2021/10/04 09:48:35;;;;;;;3.13;0.60;;;15.80;99.90;;;;;;5084582;27;20138;-75
2021/10/04 09:51:15;;;;;;;8.48;0.80;;;15.90;99.90;;;;;;5070195;27;20487;-75
2021/10/04 09:53:41;;;;;;;4.20;0.70;;;16.00;99.90;;;;;;5084985;27;20049;-76
2021/10/04 09:56:25;;;;;;;2.42;0.40;;;16.00;99.90;;;;;;5086257;27;20036;-76
2021/10/04 09:58:51;;;;;;;8.15;0.50;;;16.20;99.90;;;;;;5067014;27;20047;-76
2021/10/04 10:01:18;;;;;;;3.00;0.30;;;16.20;99.90;;;;;;5084883;27;20065;-76
2021/10/04 10:03:45;;;;;;;5.88;0.40;;;16.40;99.90;;;;;;5104603;27;20472;-76
2021/10/04 10:06:12;;;;;;;3.70;0.50;;;16.60;99.90;;;;;;5087054;27;20027;-76
2021/10/04 10:08:38;;;;;;;3.45;1.15;;;16.80;99.90;;;;;;5086846;27;20036;-76
2021/10/04 10:11:06;;;;;;;2.50;0.60;;;17.00;99.90;;;;;;5085516;27;20035;-77
2021/10/04 10:13:34;;;;;;;4.15;0.60;;;17.30;99.90;;;;;;5082605;27;20403;-76
2021/10/04 10:16:10;;;;;;;4.28;0.50;;;17.50;99.90;;;;;;5112733;27;20035;-76
2021/10/04 10:18:51;;;;;;;5.53;0.60;;;17.70;99.90;;;;;;5099902;27;20038;-77
2021/10/04 10:21:24;;;;;;;5.97;0.40;;;17.90;99.90;;;;;;5106492;27;20028;-78
2021/10/04 10:23:50;;;;;;;3.78;0.60;;;18.00;99.90;;;;;;5081836;27;20032;-79
2021/10/04 10:26:36;;;;;;;5.45;0.50;;;18.30;99.90;;;;;;5070411;27;20031;-80
2021/10/04 10:29:09;;;;;;;2.38;0.30;;;18.60;99.90;;;;;;5087405;27;20046;-79
2021/10/04 10:31:58;;;;;;;2.78;0.40;;;18.80;99.90;;;;;;5106014;27;20043;-80
2021/10/04 10:34:27;;;;;;;3.28;0.43;;;19.00;99.90;;;;;;5095799;27;20066;-79
2021/10/04 10:37:15;;;;;;;4.00;0.40;;;19.10;99.90;;;;;;5081864;27;20028;-79
2021/10/04 10:39:46;;;;;;;3.65;0.30;;;19.40;99.90;;;;;;5097601;27;20039;-77
2021/10/04 10:42:52;;;;;;;5.70;0.30;;;19.70;99.90;;;;;;5085350;28;20077;-77
2021/10/04 10:45:19;;;;;;;6.45;2.75;;;19.90;99.90;;;;;;5018631;28;20045;-77
2021/10/04 10:47:45;;;;;;;6.00;2.72;;;20.30;99.90;;;;;;5036580;28;20070;-78
2021/10/04 10:50:38;;;;;;;3.58;0.45;;;20.60;99.90;;;;;;5074752;27;20035;-77
2021/10/04 10:53:16;;;;;;;7.35;0.52;;;20.70;99.90;;;;;;5082731;28;20044;-76
2021/10/04 10:55:54;;;;;;;4.75;0.52;;;20.90;99.90;;;;;;5112668;27;20031;-77
2021/10/04 10:58:28;;;;;;;4.00;0.35;;;21.20;99.90;;;;;;5084388;28;20044;-77
2021/10/04 11:01:13;;;;;;;1.95;0.30;;;21.40;99.90;;;;;;5112028;27;20034;-77
2021/10/04 11:03:54;;;;;;;5.28;0.40;;;21.60;99.90;;;;;;5084942;27;20051;-76
2021/10/04 11:06:38;;;;;;;2.55;0.35;;;21.80;99.90;;;;;;5085669;27;20039;-77
2021/10/04 11:09:05;;;;;;;2.85;0.35;;;22.00;99.40;;;;;;5082940;28;20043;-76
2021/10/04 11:11:32;;;;;;;3.35;0.40;;;22.30;98.80;;;;;;5105037;27;20035;-81
2021/10/04 11:14:08;;;;;;;3.38;0.40;;;22.30;97.80;;;;;;5083944;27;20449;-81
2021/10/04 11:16:58;;;;;;;5.07;1.52;;;22.30;97.50;;;;;;5085069;27;20083;-82
2021/10/04 11:19:28;;;;;;;2.80;0.60;;;22.30;95.70;;;;;;5083679;27;20028;-81
2021/10/04 11:21:55;;;;;;;1.85;0.40;;;22.30;94.30;;;;;;5067648;28;20032;-81
2021/10/04 11:24:22;;;;;;;3.97;0.50;;;22.40;93.70;;;;;;5108401;27;20046;-80
2021/10/04 11:26:49;;;;;;;3.88;0.43;;;22.40;93.20;;;;;;5108554;27;20035;-77
2021/10/04 11:29:17;;;;;;;2.60;0.40;;;22.60;93.70;;;;;;5085230;28;20035;-76
2021/10/04 11:31:44;;;;;;;2.80;0.30;;;22.80;92.50;;;;;;5085536;28;20036;-77
2021/10/04 11:34:14;;;;;;;4.28;0.30;;;23.20;91.30;;;;;;5083303;28;20036;-78
2021/10/04 11:36:51;;;;;;;4.45;0.50;;;23.50;91.30;;;;;;5108954;28;20039;-80
2021/10/04 11:39:26;;;;;;;1.60;0.35;;;23.50;91.40;;;;;;5068093;28;20392;-79
2021/10/04 11:41:55;;;;;;;3.42;0.40;;;23.40;91.70;;;;;;5082954;28;20689;-80
2021/10/04 11:44:25;;;;;;;6.18;0.70;;;23.00;91.10;;;;;;5083523;28;20035;-79
2021/10/04 11:46:55;;;;;;;5.10;0.45;;;22.70;89.70;;;;;;5109240;27;20043;-79
2021/10/04 11:49:24;;;;;;;2.35;0.40;;;22.50;90.10;;;;;;5105228;27;20039;-79
2021/10/04 11:51:53;;;;;;;3.65;0.43;;;22.40;90.60;;;;;;5086996;28;20051;-79
2021/10/04 11:54:39;;;;;;;4.70;0.40;;;22.20;90.10;;;;;;5084796;28;20476;-76
2021/10/04 11:57:16;;;;;;;3.75;0.40;;;22.30;90.70;;;;;;5083585;28;20042;-79
2021/10/04 12:00:04;;;;;;;3.83;0.40;;;22.80;91.30;;;;;;5102918;28;20031;-81
2021/10/04 12:02:41;;;;;;;2.78;0.52;;;23.40;88.80;;;;;;5104435;28;20582;-80
2021/10/04 12:05:13;;;;;;;4.13;0.50;;;23.90;86.30;;;;;;5104521;28;20387;-77
2021/10/04 12:07:59;;;;;;;3.42;0.50;;;24.30;83.90;;;;;;5103986;27;20499;-77
2021/10/04 12:10:46;;;;;;;3.88;0.50;;;24.60;81.80;;;;;;5078590;28;20519;-77
2021/10/04 12:13:37;;;;;;;5.55;0.60;;;24.80;77.80;;;;;;5090486;28;20047;-78
2021/10/04 12:16:12;;;;;;;7.45;2.53;;;25.00;79.20;;;;;;5076293;28;20811;-81
2021/10/04 12:18:48;;;;;;;11.20;4.75;;;25.20;75.10;;;;;;5099591;28;20035;-83
2021/10/04 12:21:20;;;;;;;3.78;0.70;;;25.30;71.80;;;;;;5080766;28;20032;-83
2021/10/04 12:24:05;;;;;;;;;;;25.40;74.00;;;;;;5061772;28;20504;-79
2021/10/04 12:26:32;;;;;;;2.97;0.50;;;25.70;73.10;;;;;;5100244;28;19916;-78
2021/10/04 12:28:59;;;;;;;3.55;0.80;;;25.90;70.80;;;;;;5105822;27;20035;-78
2021/10/04 12:31:37;;;;;;;2.55;0.55;;;25.70;70.20;;;;;;5084502;27;20031;-77
2021/10/04 12:34:24;;;;;;;2.95;0.40;;;25.30;68.40;;;;;;5102026;28;20503;-76
2021/10/04 12:36:51;;;;;;;5.13;0.60;;;24.80;70.30;;;;;;5112952;27;20036;-77
2021/10/04 12:39:19;;;;;;;2.60;0.32;;;25.10;71.40;;;;;;5076122;27;20586;-77
2021/10/04 12:41:48;;;;;;;3.15;0.40;;;25.40;69.20;;;;;;5119074;27;20506;-77
2021/10/04 12:44:19;;;;;;;2.65;0.50;;;25.80;68.00;;;;;;5084841;27;20034;-79
2021/10/04 12:47:13;;;;;;;5.00;0.45;;;26.20;65.70;;;;;;5087431;28;20047;-78
2021/10/04 12:49:56;;;;;;;2.38;0.50;;;26.60;65.30;;;;;;5112867;27;20043;-77
2021/10/04 12:52:28;;;;;;;2.10;0.40;;;26.70;63.30;;;;;;5090567;27;20051;-77
2021/10/04 12:54:57;;;;;;;2.38;0.40;;;26.50;62.80;;;;;;5068552;27;20259;-77
2021/10/04 12:57:28;;;;;;;4.80;0.50;;;26.80;63.30;;;;;;5084823;27;20488;-79
2021/10/04 13:00:05;;;;;;;2.97;0.57;;;27.00;62.20;;;;;;5086130;28;20400;-78